Viking Queen — WDI7023 — position and weather

sailwx.info

Track history (hours):
 
Tides and Currents Weather Stations Pressure Air Temp Water Temp Dewpoint Dewpoint Depression Visibility Wind Speed Wind Dir Waves Ship Positions

Viking Queen

Owner: AK Vessel Company LLC, Seattle, WA. More information available from US FCC via Universal Licensing System and Coast Guard Vessel Documentation Center.

Last reported at 2017-Dec-21 19:06 UTC. Time now 2018-Feb-21 21:27 UTC.
Position N 58°19' W 136°06'.
Warning: this ship's position is months out of date.

Length 34 m.

MMSI: 367777000.

Date/timePositionNaut miles runAvg speedWind from/ knotsBaromVisibWave heightAir tempDewpointWater temp
2017-Dec-21 19:06N 58°19' W 136°06'1 7.4
2017-Dec-21 19:00N 58°19' W 136°05'3 6.5
2017-Dec-21 18:29N 58°20' W 135°59'  
2017-Dec-19 11:50N 54°30' W 130°41'3 8.3
2017-Dec-19 11:28N 54°27' W 130°39'4 9.1
2017-Dec-19 11:00N 54°23' W 130°38'5 9.8
2017-Dec-19 10:30N 54°18' W 130°35'5 9.9
2017-Dec-19 10:00N 54°14' W 130°30'5 9.6
2017-Dec-19 09:30N 54°10' W 130°26'5 9.2
2017-Dec-19 09:00N 54°06' W 130°22'5 9.5
2017-Dec-19 08:30N 54°03' W 130°16'5 9.5
2017-Dec-19 08:00N 53°59' W 130°13'4 8.9
2017-Dec-19 07:30N 53°55' W 130°10'144 7.8
2017-Dec-18 13:00N 51°55' W 127°57'5 9.3
2017-Dec-18 12:30N 51°50' W 127°57'5 9.6
2017-Dec-18 12:00N 51°46' W 127°57'5 9.5
2017-Dec-18 11:29N 51°41' W 127°55'122 7.7
2017-Dec-17 19:36N 50°21' W 125°28'2 8.5
2017-Dec-17 19:24N 50°20' W 125°26'4 9.4
2017-Dec-17 18:58N 50°16' W 125°24'4 9.5
2017-Dec-17 18:30N 50°12' W 125°22'510.1
2017-Dec-17 18:00N 50°07' W 125°20'510.5
2017-Dec-17 17:30N 50°03' W 125°14'611.3
2017-Dec-17 17:00N 49°58' W 125°10'5 9.6
2017-Dec-17 16:30N 49°55' W 125°05'5 9.2
2017-Dec-17 16:00N 49°51' W 124°60'5 9.2
2017-Dec-17 15:30N 49°48' W 124°55'5 9.4
2017-Dec-17 15:00N 49°45' W 124°50'5 9.3
2017-Dec-17 14:30N 49°41' W 124°45'5 9.0
2017-Dec-17 14:00N 49°38' W 124°40'5 9.4
2017-Dec-17 13:30N 49°35' W 124°35'41 9.5
2017-Dec-17 09:11N 49°13' W 123°41'2 9.3
2017-Dec-17 09:00N 49°12' W 123°39'6 9.0
2017-Dec-17 08:18N 49°09' W 123°31'3 9.2
2017-Dec-17 08:00N 49°07' W 123°27'510.4
2017-Dec-17 07:30N 49°04' W 123°21'5 9.1
2017-Dec-17 06:58N 49°01' W 123°15'11 8.9
2017-Dec-17 05:45N 48°54' W 123°03'3 8.0
2017-Dec-17 05:25N 48°52' W 122°60'4 7.5
2017-Dec-17 04:54N 48°50' W 122°55'9 7.7
2017-Dec-17 03:43N 48°44' W 122°45'2 7.3
2017-Dec-17 03:30N 48°42' W 122°44'3 6.7
2017-Dec-17 03:00N 48°39' W 122°43'3 6.1
2017-Dec-17 02:30N 48°36' W 122°45'3 5.8
2017-Dec-17 02:00N 48°33' W 122°45'3 6.5
2017-Dec-17 01:30N 48°30' W 122°44'4 7.2
2017-Dec-17 01:00N 48°26' W 122°44'28 7.7
2017-Dec-16 21:22N 47°59' W 122°35'3 8.1
2017-Dec-16 21:00N 47°57' W 122°32'4 8.5
2017-Dec-16 20:30N 47°53' W 122°28'4 8.6
2017-Dec-16 20:00N 47°49' W 122°27'5 9.1
2017-Dec-16 19:30N 47°45' W 122°25'4 8.6
2017-Dec-16 19:01N 47°40' W 122°25'1 1.9
2017-Dec-16 18:30N 47°40' W 122°24'1 2.0
2017-Dec-16 18:00N 47°39' W 122°22'0 0.0
2017-Dec-16 17:30N 47°39' W 122°22'0 0.0
2017-Dec-16 17:00N 47°39' W 122°22'0 0.0
2017-Dec-16 16:30N 47°39' W 122°22'0 0.0
2017-Dec-16 16:00N 47°39' W 122°22'0 0.0
2017-Dec-16 15:30N 47°39' W 122°22'0 0.0
2017-Dec-16 15:01N 47°39' W 122°22'0 0.0
2017-Dec-16 14:30N 47°39' W 122°22'0 0.0
2017-Dec-16 14:00N 47°39' W 122°22'0 0.0
2017-Dec-16 13:30N 47°39' W 122°22'0 0.0
2017-Dec-16 13:00N 47°39' W 122°22'0 0.0
2017-Dec-16 12:30N 47°39' W 122°22'0 0.0
2017-Dec-16 12:00N 47°39' W 122°22'0 0.0
2017-Dec-16 11:30N 47°39' W 122°22'0 0.2
2017-Dec-16 11:00N 47°39' W 122°22'0 0.1
2017-Dec-16 10:30N 47°39' W 122°22'0 0.0
2017-Dec-16 10:00N 47°39' W 122°22'0 0.1
2017-Dec-16 09:30N 47°39' W 122°22'0 0.0
2017-Dec-16 09:00N 47°39' W 122°22'0 0.0
2017-Dec-16 08:30N 47°39' W 122°22'0 0.0
2017-Dec-16 08:00N 47°39' W 122°22'0 0.0
2017-Dec-16 07:30N 47°39' W 122°22'0 0.0
2017-Dec-16 07:00N 47°39' W 122°22'0 0.0
2017-Dec-16 06:30N 47°39' W 122°22'0 0.0
2017-Dec-16 06:00N 47°39' W 122°22'0 0.0
2017-Dec-16 05:30N 47°39' W 122°22'0 0.0
2017-Dec-16 05:00N 47°39' W 122°22'0 0.0
2017-Dec-16 04:30N 47°39' W 122°22'0 0.0
2017-Dec-16 04:00N 47°39' W 122°22'0 0.0
2017-Dec-16 03:30N 47°39' W 122°22'0 0.0
2017-Dec-16 03:00N 47°39' W 122°22'0 0.0
2017-Dec-16 02:30N 47°39' W 122°22'0 0.0
2017-Dec-16 02:00N 47°39' W 122°22'0 0.0
2017-Dec-16 01:30N 47°39' W 122°22'0 0.0
2017-Dec-16 01:00N 47°39' W 122°22'0 0.0
2017-Dec-16 00:30N 47°39' W 122°22'0 0.0
2017-Dec-16 00:00N 47°39' W 122°22'0 0.0
2017-Dec-15 23:30N 47°39' W 122°22'0 0.0
2017-Dec-15 23:00N 47°39' W 122°22'0 0.0
2017-Dec-15 22:30N 47°39' W 122°22'0 0.0
2017-Dec-15 22:00N 47°39' W 122°22'0 0.0
2017-Dec-15 21:30N 47°39' W 122°22'0 0.0
2017-Dec-15 21:00N 47°39' W 122°22'0 0.0
2017-Dec-15 20:30N 47°39' W 122°22'0 0.0
2017-Dec-15 20:00N 47°39' W 122°22'0 0.0
2017-Dec-15 19:30N 47°39' W 122°22'0 0.0
2017-Dec-15 19:00N 47°39' W 122°22'0 0.0
2017-Dec-15 18:31N 47°39' W 122°22'0 0.0
2017-Dec-15 18:00N 47°39' W 122°22'0 0.0
2017-Dec-15 17:30N 47°39' W 122°22'0 0.0
2017-Dec-15 17:01N 47°39' W 122°22'0 0.0
2017-Dec-15 16:30N 47°39' W 122°22'0 0.0
2017-Dec-15 16:00N 47°39' W 122°22'0 0.0
2017-Dec-15 15:30N 47°39' W 122°22'0 0.0
2017-Dec-15 15:00N 47°39' W 122°22'0 0.0
2017-Dec-15 14:30N 47°39' W 122°22'0 0.0
2017-Dec-15 14:00N 47°39' W 122°22'0 0.0
2017-Dec-15 13:30N 47°39' W 122°22'0 0.0
2017-Dec-15 13:00N 47°39' W 122°22'0 0.0
2017-Dec-15 12:30N 47°39' W 122°22'0 0.0
2017-Dec-15 12:00N 47°39' W 122°22'0 0.0
2017-Dec-15 11:30N 47°39' W 122°22'0 0.0
2017-Dec-15 11:00N 47°39' W 122°22'0 0.0
2017-Dec-15 10:30N 47°39' W 122°22'0 0.0
2017-Dec-15 10:00N 47°39' W 122°22'0 0.0
2017-Dec-15 09:30N 47°39' W 122°22'0 0.0
2017-Dec-15 09:00N 47°39' W 122°22'0 0.0
2017-Dec-15 08:30N 47°39' W 122°22'0 0.0
2017-Dec-15 08:00N 47°39' W 122°22'0 0.0
2017-Dec-15 07:30N 47°39' W 122°22'0 0.0
2017-Dec-15 07:00N 47°39' W 122°22'0 0.0
2017-Dec-15 06:30N 47°39' W 122°22'0 0.0
2017-Dec-15 06:00N 47°39' W 122°22'0 0.0
2017-Dec-15 05:30N 47°39' W 122°22'0 0.0
2017-Dec-15 05:00N 47°39' W 122°22'0 0.0
2017-Dec-15 04:30N 47°39' W 122°22'0 0.0
2017-Dec-15 04:00N 47°39' W 122°22'0 0.0
2017-Dec-15 02:30N 47°39' W 122°22'0 0.0
2017-Dec-15 01:00N 47°39' W 122°22'0 0.0
2017-Dec-15 00:30N 47°39' W 122°22'2 0.3
2017-Dec-14 18:31N 47°38' W 122°23'0 0.0
2017-Dec-14 18:00N 47°38' W 122°23'0 0.0
2017-Dec-14 17:30N 47°38' W 122°23'0 0.0
2017-Dec-14 17:00N 47°38' W 122°23'0 0.0
2017-Dec-14 16:30N 47°38' W 122°23'0 0.0
2017-Dec-14 16:00N 47°38' W 122°23'0 0.0
2017-Dec-14 15:00N 47°38' W 122°23'0 0.0
2017-Dec-14 14:30N 47°38' W 122°23'0 0.0
2017-Dec-14 14:00N 47°38' W 122°23'0 0.0
2017-Dec-14 13:30N 47°38' W 122°23'0 0.0
2017-Dec-14 13:00N 47°38' W 122°23'0 0.0
2017-Dec-14 12:30N 47°38' W 122°23'0 0.0
2017-Dec-14 12:00N 47°38' W 122°23'0 0.0
2017-Dec-14 11:30N 47°38' W 122°23'0 0.0
2017-Dec-14 11:00N 47°38' W 122°23'0 0.0
2017-Dec-14 10:30N 47°38' W 122°23'0 0.0
2017-Dec-14 10:00N 47°38' W 122°23'0 0.0
2017-Dec-14 09:30N 47°38' W 122°23'0 0.0
2017-Dec-14 09:00N 47°38' W 122°23'0 0.0
2017-Dec-14 08:31N 47°38' W 122°23'1 1.2
2017-Dec-14 08:00N 47°37' W 122°24'4 8.2
2017-Dec-14 07:30N 47°40' W 122°28'5 9.1
2017-Dec-14 07:00N 47°45' W 122°27'5 9.0
2017-Dec-14 06:30N 47°49' W 122°28'4 8.9
2017-Dec-14 06:00N 47°53' W 122°29'28 7.2
2017-Dec-14 02:05N 48°19' W 122°47'1 9.4
2017-Dec-14 02:00N 48°20' W 122°47'5 9.9
2017-Dec-14 01:30N 48°25' W 122°45'611.4
2017-Dec-14 01:00N 48°30' W 122°43'4 8.1
2017-Dec-14 00:30N 48°34' W 122°41'0 0.3
2017-Dec-14 00:00N 48°34' W 122°41'0 0.0
2017-Dec-13 23:30N 48°34' W 122°41'0 0.0
2017-Dec-13 22:59N 48°34' W 122°41'0 0.0
2017-Dec-13 22:30N 48°34' W 122°41'0 0.0
2017-Dec-13 22:00N 48°34' W 122°41'0 0.0
2017-Dec-13 21:29N 48°34' W 122°41'0 0.0
2017-Dec-13 20:57N 48°34' W 122°41'0 0.0
2017-Dec-13 20:30N 48°34' W 122°41'0 0.0
2017-Dec-13 20:00N 48°34' W 122°41'0 0.0
2017-Dec-13 19:30N 48°34' W 122°41'0 0.0
2017-Dec-13 19:00N 48°34' W 122°41'0 0.0
2017-Dec-13 18:30N 48°34' W 122°41'0 0.0
2017-Dec-13 18:00N 48°34' W 122°41'0 0.0
2017-Dec-13 17:30N 48°34' W 122°41'0 0.0
2017-Dec-13 17:00N 48°34' W 122°41'0 0.0
2017-Dec-13 16:30N 48°34' W 122°41'0 0.5
2017-Dec-13 16:00N 48°34' W 122°40'1 2.9
2017-Dec-13 15:30N 48°32' W 122°41'2 4.0
2017-Dec-13 15:00N 48°31' W 122°39'0 0.0
2017-Dec-13 14:30N 48°31' W 122°39'0 0.0
2017-Dec-13 14:00N 48°31' W 122°39'0 0.0
2017-Dec-13 13:30N 48°31' W 122°39'0 0.0
2017-Dec-13 13:00N 48°31' W 122°39'0 0.0
2017-Dec-13 12:30N 48°31' W 122°39'0 0.0
2017-Dec-13 12:00N 48°31' W 122°39'0 0.0
2017-Dec-13 11:30N 48°31' W 122°39'0 0.0
2017-Dec-13 11:00N 48°31' W 122°39'0 0.0
2017-Dec-13 10:30N 48°31' W 122°39'0 0.0
2017-Dec-13 10:00N 48°31' W 122°39'0 0.0
2017-Dec-13 09:30N 48°31' W 122°39'0 0.0
2017-Dec-13 09:00N 48°31' W 122°39'0 0.0
2017-Dec-13 08:30N 48°31' W 122°39'0 0.0
2017-Dec-13 08:00N 48°31' W 122°39'0 0.0
2017-Dec-13 07:30N 48°31' W 122°39'0 0.0
2017-Dec-13 07:00N 48°31' W 122°39'2 4.4
2017-Dec-13 06:30N 48°31' W 122°42'4 8.5
2017-Dec-13 06:00N 48°27' W 122°44'29 8.1
2017-Dec-13 02:24N 47°59' W 122°35'410.2
2017-Dec-13 02:00N 47°56' W 122°30'5 9.5
2017-Dec-13 01:30N 47°52' W 122°28'5 9.5
2017-Dec-13 01:00N 47°47' W 122°26'5 9.4
2017-Dec-13 00:30N 47°43' W 122°26'3 6.0
2017-Dec-13 00:00N 47°40' W 122°24'0 0.8
2017-Dec-12 23:30N 47°40' W 122°23'1 1.3
2017-Dec-12 23:00N 47°39' W 122°23'0 0.2
2017-Dec-12 22:30N 47°40' W 122°23'0 0.7
2017-Dec-12 22:00N 47°39' W 122°22'1 2.4
2017-Dec-12 21:30N 47°40' W 122°24'1 1.5
2017-Dec-12 21:00N 47°40' W 122°25'3 5.3
2017-Dec-12 20:30N 47°38' W 122°25'1 2.8
2017-Dec-12 20:00N 47°38' W 122°23'0 0.0
2017-Dec-12 19:30N 47°38' W 122°23'0 0.0
2017-Dec-12 19:00N 47°38' W 122°23'0 0.0
2017-Dec-12 18:30N 47°38' W 122°23'0 0.0
2017-Dec-12 18:00N 47°38' W 122°23'0 0.0
2017-Dec-12 17:30N 47°38' W 122°23'0 0.0
2017-Dec-12 17:00N 47°38' W 122°23'0 0.0
2017-Dec-12 16:30N 47°38' W 122°23'0 0.0
2017-Dec-12 16:00N 47°38' W 122°23'0 0.0
2017-Dec-12 15:31N 47°38' W 122°23'0 0.0
2017-Dec-12 15:01N 47°38' W 122°23'0 0.0
2017-Dec-12 14:31N 47°38' W 122°23'0 0.0
2017-Dec-12 14:01N 47°38' W 122°23'0 0.0
2017-Dec-12 13:31N 47°38' W 122°23'0 0.0
2017-Dec-12 13:01N 47°38' W 122°23'0 0.0
2017-Dec-12 12:30N 47°38' W 122°23'0 0.0
2017-Dec-12 12:01N 47°38' W 122°23'0 0.0
2017-Dec-12 11:30N 47°38' W 122°23'0 0.0
2017-Dec-12 11:01N 47°38' W 122°23'0 0.0
2017-Dec-12 10:31N 47°38' W 122°23'0 0.0
2017-Dec-12 10:01N 47°38' W 122°23'0 0.0
2017-Dec-12 09:31N 47°38' W 122°23'0 0.0
2017-Dec-12 09:01N 47°38' W 122°23'0 0.0
2017-Dec-12 08:31N 47°38' W 122°23'0 0.0
2017-Dec-12 08:01N 47°38' W 122°23'0 0.0
2017-Dec-12 07:30N 47°38' W 122°23'0 1.0
2017-Dec-12 07:00N 47°38' W 122°23'4 7.5
2017-Dec-12 06:30N 47°39' W 122°28'4 8.2
2017-Dec-12 06:00N 47°44' W 122°27'4 8.2
2017-Dec-12 05:31N 47°48' W 122°27'4 8.4
2017-Dec-12 05:01N 47°52' W 122°29'4 8.2
2017-Dec-12 04:31N 47°55' W 122°31'21 7.3
2017-Dec-12 01:42N 48°12' W 122°49'6 8.7
2017-Dec-12 01:04N 48°17' W 122°48'1 9.3
2017-Dec-12 00:58N 48°18' W 122°47'5 9.4
2017-Dec-12 00:28N 48°23' W 122°45'510.4
2017-Dec-12 00:00N 48°28' W 122°44'511.1
2017-Dec-11 23:31N 48°32' W 122°41'1 2.4
2017-Dec-11 23:00N 48°34' W 122°41'0 0.0
2017-Dec-11 22:30N 48°34' W 122°41'0 0.0
2017-Dec-11 21:59N 48°34' W 122°41'0 0.0
2017-Dec-11 21:30N 48°34' W 122°41'0 0.0
2017-Dec-11 21:00N 48°34' W 122°41'0 0.0
2017-Dec-11 20:29N 48°34' W 122°41'0 0.0
2017-Dec-11 19:54N 48°34' W 122°41'0 0.0
2017-Dec-11 19:30N 48°34' W 122°41'  
Track history (hours):
 
Tides and Currents Weather Stations Pressure Air Temp Water Temp Dewpoint Dewpoint Depression Visibility Wind Speed Wind Dir Waves Ship Positions

Viking Queen

Owner: AK Vessel Company LLC, Seattle, WA. More information available from US FCC via Universal Licensing System and Coast Guard Vessel Documentation Center.

Last reported at 2017-Dec-21 19:06 UTC. Time now 2018-Feb-21 21:27 UTC.
Position N 58°19' W 136°06'.
Warning: this ship's position is months out of date.

Length 34 m.

MMSI: 367777000.

Date/timePositionNaut miles runAvg speedWind from/ knotsBaromVisibWave heightAir tempDewpointWater temp
2017-Dec-21 19:06N 58°19' W 136°06'1 7.4
2017-Dec-21 19:00N 58°19' W 136°05'3 6.5
2017-Dec-21 18:29N 58°20' W 135°59'  
2017-Dec-19 11:50N 54°30' W 130°41'3 8.3
2017-Dec-19 11:28N 54°27' W 130°39'4 9.1
2017-Dec-19 11:00N 54°23' W 130°38'5 9.8
2017-Dec-19 10:30N 54°18' W 130°35'5 9.9
2017-Dec-19 10:00N 54°14' W 130°30'5 9.6
2017-Dec-19 09:30N 54°10' W 130°26'5 9.2
2017-Dec-19 09:00N 54°06' W 130°22'5 9.5
2017-Dec-19 08:30N 54°03' W 130°16'5 9.5
2017-Dec-19 08:00N 53°59' W 130°13'4 8.9
2017-Dec-19 07:30N 53°55' W 130°10'144 7.8
2017-Dec-18 13:00N 51°55' W 127°57'5 9.3
2017-Dec-18 12:30N 51°50' W 127°57'5 9.6
2017-Dec-18 12:00N 51°46' W 127°57'5 9.5
2017-Dec-18 11:29N 51°41' W 127°55'122 7.7
2017-Dec-17 19:36N 50°21' W 125°28'2 8.5
2017-Dec-17 19:24N 50°20' W 125°26'4 9.4
2017-Dec-17 18:58N 50°16' W 125°24'4 9.5
2017-Dec-17 18:30N 50°12' W 125°22'510.1
2017-Dec-17 18:00N 50°07' W 125°20'510.5
2017-Dec-17 17:30N 50°03' W 125°14'611.3
2017-Dec-17 17:00N 49°58' W 125°10'5 9.6
2017-Dec-17 16:30N 49°55' W 125°05'5 9.2
2017-Dec-17 16:00N 49°51' W 124°60'5 9.2
2017-Dec-17 15:30N 49°48' W 124°55'5 9.4
2017-Dec-17 15:00N 49°45' W 124°50'5 9.3
2017-Dec-17 14:30N 49°41' W 124°45'5 9.0
2017-Dec-17 14:00N 49°38' W 124°40'5 9.4
2017-Dec-17 13:30N 49°35' W 124°35'41 9.5
2017-Dec-17 09:11N 49°13' W 123°41'2 9.3
2017-Dec-17 09:00N 49°12' W 123°39'6 9.0
2017-Dec-17 08:18N 49°09' W 123°31'3 9.2
2017-Dec-17 08:00N 49°07' W 123°27'510.4
2017-Dec-17 07:30N 49°04' W 123°21'5 9.1
2017-Dec-17 06:58N 49°01' W 123°15'11 8.9
2017-Dec-17 05:45N 48°54' W 123°03'3 8.0
2017-Dec-17 05:25N 48°52' W 122°60'4 7.5
2017-Dec-17 04:54N 48°50' W 122°55'9 7.7
2017-Dec-17 03:43N 48°44' W 122°45'2 7.3
2017-Dec-17 03:30N 48°42' W 122°44'3 6.7
2017-Dec-17 03:00N 48°39' W 122°43'3 6.1
2017-Dec-17 02:30N 48°36' W 122°45'3 5.8
2017-Dec-17 02:00N 48°33' W 122°45'3 6.5
2017-Dec-17 01:30N 48°30' W 122°44'4 7.2
2017-Dec-17 01:00N 48°26' W 122°44'28 7.7
2017-Dec-16 21:22N 47°59' W 122°35'3 8.1
2017-Dec-16 21:00N 47°57' W 122°32'4 8.5
2017-Dec-16 20:30N 47°53' W 122°28'4 8.6
2017-Dec-16 20:00N 47°49' W 122°27'5 9.1
2017-Dec-16 19:30N 47°45' W 122°25'4 8.6
2017-Dec-16 19:01N 47°40' W 122°25'1 1.9
2017-Dec-16 18:30N 47°40' W 122°24'1 2.0
2017-Dec-16 18:00N 47°39' W 122°22'0 0.0
2017-Dec-16 17:30N 47°39' W 122°22'0 0.0
2017-Dec-16 17:00N 47°39' W 122°22'0 0.0
2017-Dec-16 16:30N 47°39' W 122°22'0 0.0
2017-Dec-16 16:00N 47°39' W 122°22'0 0.0
2017-Dec-16 15:30N 47°39' W 122°22'0 0.0
2017-Dec-16 15:01N 47°39' W 122°22'0 0.0
2017-Dec-16 14:30N 47°39' W 122°22'0 0.0
2017-Dec-16 14:00N 47°39' W 122°22'0 0.0
2017-Dec-16 13:30N 47°39' W 122°22'0 0.0
2017-Dec-16 13:00N 47°39' W 122°22'0 0.0
2017-Dec-16 12:30N 47°39' W 122°22'0 0.0
2017-Dec-16 12:00N 47°39' W 122°22'0 0.0
2017-Dec-16 11:30N 47°39' W 122°22'0 0.2
2017-Dec-16 11:00N 47°39' W 122°22'0 0.1
2017-Dec-16 10:30N 47°39' W 122°22'0 0.0
2017-Dec-16 10:00N 47°39' W 122°22'0 0.1
2017-Dec-16 09:30N 47°39' W 122°22'0 0.0
2017-Dec-16 09:00N 47°39' W 122°22'0 0.0
2017-Dec-16 08:30N 47°39' W 122°22'0 0.0
2017-Dec-16 08:00N 47°39' W 122°22'0 0.0
2017-Dec-16 07:30N 47°39' W 122°22'0 0.0
2017-Dec-16 07:00N 47°39' W 122°22'0 0.0
2017-Dec-16 06:30N 47°39' W 122°22'0 0.0
2017-Dec-16 06:00N 47°39' W 122°22'0 0.0
2017-Dec-16 05:30N 47°39' W 122°22'0 0.0
2017-Dec-16 05:00N 47°39' W 122°22'0 0.0
2017-Dec-16 04:30N 47°39' W 122°22'0 0.0
2017-Dec-16 04:00N 47°39' W 122°22'0 0.0
2017-Dec-16 03:30N 47°39' W 122°22'0 0.0
2017-Dec-16 03:00N 47°39' W 122°22'0 0.0
2017-Dec-16 02:30N 47°39' W 122°22'0 0.0
2017-Dec-16 02:00N 47°39' W 122°22'0 0.0
2017-Dec-16 01:30N 47°39' W 122°22'0 0.0
2017-Dec-16 01:00N 47°39' W 122°22'0 0.0
2017-Dec-16 00:30N 47°39' W 122°22'0 0.0
2017-Dec-16 00:00N 47°39' W 122°22'0 0.0
2017-Dec-15 23:30N 47°39' W 122°22'0 0.0
2017-Dec-15 23:00N 47°39' W 122°22'0 0.0
2017-Dec-15 22:30N 47°39' W 122°22'0 0.0
2017-Dec-15 22:00N 47°39' W 122°22'0 0.0
2017-Dec-15 21:30N 47°39' W 122°22'0 0.0
2017-Dec-15 21:00N 47°39' W 122°22'0 0.0
2017-Dec-15 20:30N 47°39' W 122°22'0 0.0
2017-Dec-15 20:00N 47°39' W 122°22'0 0.0
2017-Dec-15 19:30N 47°39' W 122°22'0 0.0
2017-Dec-15 19:00N 47°39' W 122°22'0 0.0
2017-Dec-15 18:31N 47°39' W 122°22'0 0.0
2017-Dec-15 18:00N 47°39' W 122°22'0 0.0
2017-Dec-15 17:30N 47°39' W 122°22'0 0.0
2017-Dec-15 17:01N 47°39' W 122°22'0 0.0
2017-Dec-15 16:30N 47°39' W 122°22'0 0.0
2017-Dec-15 16:00N 47°39' W 122°22'0 0.0
2017-Dec-15 15:30N 47°39' W 122°22'0 0.0
2017-Dec-15 15:00N 47°39' W 122°22'0 0.0
2017-Dec-15 14:30N 47°39' W 122°22'0 0.0
2017-Dec-15 14:00N 47°39' W 122°22'0 0.0
2017-Dec-15 13:30N 47°39' W 122°22'0 0.0
2017-Dec-15 13:00N 47°39' W 122°22'0 0.0
2017-Dec-15 12:30N 47°39' W 122°22'0 0.0
2017-Dec-15 12:00N 47°39' W 122°22'0 0.0
2017-Dec-15 11:30N 47°39' W 122°22'0 0.0
2017-Dec-15 11:00N 47°39' W 122°22'0 0.0
2017-Dec-15 10:30N 47°39' W 122°22'0 0.0
2017-Dec-15 10:00N 47°39' W 122°22'0 0.0
2017-Dec-15 09:30N 47°39' W 122°22'0 0.0
2017-Dec-15 09:00N 47°39' W 122°22'0 0.0
2017-Dec-15 08:30N 47°39' W 122°22'0 0.0
2017-Dec-15 08:00N 47°39' W 122°22'0 0.0
2017-Dec-15 07:30N 47°39' W 122°22'0 0.0
2017-Dec-15 07:00N 47°39' W 122°22'0 0.0
2017-Dec-15 06:30N 47°39' W 122°22'0 0.0
2017-Dec-15 06:00N 47°39' W 122°22'0 0.0
2017-Dec-15 05:30N 47°39' W 122°22'0 0.0
2017-Dec-15 05:00N 47°39' W 122°22'0 0.0
2017-Dec-15 04:30N 47°39' W 122°22'0 0.0
2017-Dec-15 04:00N 47°39' W 122°22'0 0.0
2017-Dec-15 02:30N 47°39' W 122°22'0 0.0
2017-Dec-15 01:00N 47°39' W 122°22'0 0.0
2017-Dec-15 00:30N 47°39' W 122°22'2 0.3
2017-Dec-14 18:31N 47°38' W 122°23'0 0.0
2017-Dec-14 18:00N 47°38' W 122°23'0 0.0
2017-Dec-14 17:30N 47°38' W 122°23'0 0.0
2017-Dec-14 17:00N 47°38' W 122°23'0 0.0
2017-Dec-14 16:30N 47°38' W 122°23'0 0.0
2017-Dec-14 16:00N 47°38' W 122°23'0 0.0
2017-Dec-14 15:00N 47°38' W 122°23'0 0.0
2017-Dec-14 14:30N 47°38' W 122°23'0 0.0
2017-Dec-14 14:00N 47°38' W 122°23'0 0.0
2017-Dec-14 13:30N 47°38' W 122°23'0 0.0
2017-Dec-14 13:00N 47°38' W 122°23'0 0.0
2017-Dec-14 12:30N 47°38' W 122°23'0 0.0
2017-Dec-14 12:00N 47°38' W 122°23'0 0.0
2017-Dec-14 11:30N 47°38' W 122°23'0 0.0
2017-Dec-14 11:00N 47°38' W 122°23'0 0.0
2017-Dec-14 10:30N 47°38' W 122°23'0 0.0
2017-Dec-14 10:00N 47°38' W 122°23'0 0.0
2017-Dec-14 09:30N 47°38' W 122°23'0 0.0
2017-Dec-14 09:00N 47°38' W 122°23'0 0.0
2017-Dec-14 08:31N 47°38' W 122°23'1 1.2
2017-Dec-14 08:00N 47°37' W 122°24'4 8.2
2017-Dec-14 07:30N 47°40' W 122°28'5 9.1
2017-Dec-14 07:00N 47°45' W 122°27'5 9.0
2017-Dec-14 06:30N 47°49' W 122°28'4 8.9
2017-Dec-14 06:00N 47°53' W 122°29'28 7.2
2017-Dec-14 02:05N 48°19' W 122°47'1 9.4
2017-Dec-14 02:00N 48°20' W 122°47'5 9.9
2017-Dec-14 01:30N 48°25' W 122°45'611.4
2017-Dec-14 01:00N 48°30' W 122°43'4 8.1
2017-Dec-14 00:30N 48°34' W 122°41'0 0.3
2017-Dec-14 00:00N 48°34' W 122°41'0 0.0
2017-Dec-13 23:30N 48°34' W 122°41'0 0.0
2017-Dec-13 22:59N 48°34' W 122°41'0 0.0
2017-Dec-13 22:30N 48°34' W 122°41'0 0.0
2017-Dec-13 22:00N 48°34' W 122°41'0 0.0
2017-Dec-13 21:29N 48°34' W 122°41'0 0.0
2017-Dec-13 20:57N 48°34' W 122°41'0 0.0
2017-Dec-13 20:30N 48°34' W 122°41'0 0.0
2017-Dec-13 20:00N 48°34' W 122°41'0 0.0
2017-Dec-13 19:30N 48°34' W 122°41'0 0.0
2017-Dec-13 19:00N 48°34' W 122°41'0 0.0
2017-Dec-13 18:30N 48°34' W 122°41'0 0.0
2017-Dec-13 18:00N 48°34' W 122°41'0 0.0
2017-Dec-13 17:30N 48°34' W 122°41'0 0.0
2017-Dec-13 17:00N 48°34' W 122°41'0 0.0
2017-Dec-13 16:30N 48°34' W 122°41'0 0.5
2017-Dec-13 16:00N 48°34' W 122°40'1 2.9
2017-Dec-13 15:30N 48°32' W 122°41'2 4.0
2017-Dec-13 15:00N 48°31' W 122°39'0 0.0
2017-Dec-13 14:30N 48°31' W 122°39'0 0.0
2017-Dec-13 14:00N 48°31' W 122°39'0 0.0
2017-Dec-13 13:30N 48°31' W 122°39'0 0.0
2017-Dec-13 13:00N 48°31' W 122°39'0 0.0
2017-Dec-13 12:30N 48°31' W 122°39'0 0.0
2017-Dec-13 12:00N 48°31' W 122°39'0 0.0
2017-Dec-13 11:30N 48°31' W 122°39'0 0.0
2017-Dec-13 11:00N 48°31' W 122°39'0 0.0
2017-Dec-13 10:30N 48°31' W 122°39'0 0.0
2017-Dec-13 10:00N 48°31' W 122°39'0 0.0
2017-Dec-13 09:30N 48°31' W 122°39'0 0.0
2017-Dec-13 09:00N 48°31' W 122°39'0 0.0
2017-Dec-13 08:30N 48°31' W 122°39'0 0.0
2017-Dec-13 08:00N 48°31' W 122°39'0 0.0
2017-Dec-13 07:30N 48°31' W 122°39'0 0.0
2017-Dec-13 07:00N 48°31' W 122°39'2 4.4
2017-Dec-13 06:30N 48°31' W 122°42'4 8.5
2017-Dec-13 06:00N 48°27' W 122°44'29 8.1
2017-Dec-13 02:24N 47°59' W 122°35'410.2
2017-Dec-13 02:00N 47°56' W 122°30'5 9.5
2017-Dec-13 01:30N 47°52' W 122°28'5 9.5
2017-Dec-13 01:00N 47°47' W 122°26'5 9.4
2017-Dec-13 00:30N 47°43' W 122°26'3 6.0
2017-Dec-13 00:00N 47°40' W 122°24'0 0.8
2017-Dec-12 23:30N 47°40' W 122°23'1 1.3
2017-Dec-12 23:00N 47°39' W 122°23'0 0.2
2017-Dec-12 22:30N 47°40' W 122°23'0 0.7
2017-Dec-12 22:00N 47°39' W 122°22'1 2.4
2017-Dec-12 21:30N 47°40' W 122°24'1 1.5
2017-Dec-12 21:00N 47°40' W 122°25'3 5.3
2017-Dec-12 20:30N 47°38' W 122°25'1 2.8
2017-Dec-12 20:00N 47°38' W 122°23'0 0.0
2017-Dec-12 19:30N 47°38' W 122°23'0 0.0
2017-Dec-12 19:00N 47°38' W 122°23'0 0.0
2017-Dec-12 18:30N 47°38' W 122°23'0 0.0
2017-Dec-12 18:00N 47°38' W 122°23'0 0.0
2017-Dec-12 17:30N 47°38' W 122°23'0 0.0
2017-Dec-12 17:00N 47°38' W 122°23'0 0.0
2017-Dec-12 16:30N 47°38' W 122°23'0 0.0
2017-Dec-12 16:00N 47°38' W 122°23'0 0.0
2017-Dec-12 15:31N 47°38' W 122°23'0 0.0
2017-Dec-12 15:01N 47°38' W 122°23'0 0.0
2017-Dec-12 14:31N 47°38' W 122°23'0 0.0
2017-Dec-12 14:01N 47°38' W 122°23'0 0.0
2017-Dec-12 13:31N 47°38' W 122°23'0 0.0
2017-Dec-12 13:01N 47°38' W 122°23'0 0.0
2017-Dec-12 12:30N 47°38' W 122°23'0 0.0
2017-Dec-12 12:01N 47°38' W 122°23'0 0.0
2017-Dec-12 11:30N 47°38' W 122°23'0 0.0
2017-Dec-12 11:01N 47°38' W 122°23'0 0.0
2017-Dec-12 10:31N 47°38' W 122°23'0 0.0
2017-Dec-12 10:01N 47°38' W 122°23'0 0.0
2017-Dec-12 09:31N 47°38' W 122°23'0 0.0
2017-Dec-12 09:01N 47°38' W 122°23'0 0.0
2017-Dec-12 08:31N 47°38' W 122°23'0 0.0
2017-Dec-12 08:01N 47°38' W 122°23'0 0.0
2017-Dec-12 07:30N 47°38' W 122°23'0 1.0
2017-Dec-12 07:00N 47°38' W 122°23'4 7.5
2017-Dec-12 06:30N 47°39' W 122°28'4 8.2
2017-Dec-12 06:00N 47°44' W 122°27'4 8.2
2017-Dec-12 05:31N 47°48' W 122°27'4 8.4
2017-Dec-12 05:01N 47°52' W 122°29'4 8.2
2017-Dec-12 04:31N 47°55' W 122°31'21 7.3
2017-Dec-12 01:42N 48°12' W 122°49'6 8.7
2017-Dec-12 01:04N 48°17' W 122°48'1 9.3
2017-Dec-12 00:58N 48°18' W 122°47'5 9.4
2017-Dec-12 00:28N 48°23' W 122°45'510.4
2017-Dec-12 00:00N 48°28' W 122°44'511.1
2017-Dec-11 23:31N 48°32' W 122°41'1 2.4
2017-Dec-11 23:00N 48°34' W 122°41'0 0.0
2017-Dec-11 22:30N 48°34' W 122°41'0 0.0
2017-Dec-11 21:59N 48°34' W 122°41'0 0.0
2017-Dec-11 21:30N 48°34' W 122°41'0 0.0
2017-Dec-11 21:00N 48°34' W 122°41'0 0.0
2017-Dec-11 20:29N 48°34' W 122°41'0 0.0
2017-Dec-11 19:54N 48°34' W 122°41'0 0.0
2017-Dec-11 19:30N 48°34' W 122°41'  

Dump ship's entire track history